Time;durP1;ratioP1;P1;durP2;ratioP2;P2;SDS_P1;SDS_P2;PMS_P1;PMS_P2;Temp;Humidity;BMP_temperature;BMP_pressure;BME280_temperature;BME280_humidity;BME280_pressure;Samples;Min_cycle;Max_cycle;Signal;HPM_P1;HPM_P2
2023/03/18 00:02:02;;;;;;;2.88;1.20;;;11.30;97.80;;;;;;5036394;28;25059;-81
2023/03/18 00:04:30;;;;;;;7.28;1.83;;;11.30;97.80;;;;;;5036243;28;25067;-81
2023/03/18 00:06:58;;;;;;;5.22;1.58;;;11.30;97.80;;;;;;5036266;28;25131;-80
2023/03/18 00:09:26;;;;;;;6.90;2.08;;;11.40;97.90;;;;;;5036389;28;25080;-81
2023/03/18 00:11:55;;;;;;;6.43;2.30;;;11.40;97.90;;;;;;5036567;28;25082;-81
2023/03/18 00:14:23;;;;;;;5.85;2.15;;;11.50;98.00;;;;;;5036108;28;25059;-81
2023/03/18 00:16:51;;;;;;;9.60;1.95;;;11.50;98.00;;;;;;5036338;28;25103;-81
2023/03/18 00:19:18;;;;;;;6.50;1.45;;;11.50;98.00;;;;;;5036365;28;25141;-81
2023/03/18 00:21:46;;;;;;;5.13;1.48;;;11.60;98.10;;;;;;5035037;28;25078;-81
2023/03/18 00:24:14;;;;;;;3.95;1.75;;;11.50;97.90;;;;;;5018482;28;25124;-81
2023/03/18 00:26:42;;;;;;;4.07;1.67;;;11.50;98.20;;;;;;5036314;28;25131;-81
2023/03/18 00:29:10;;;;;;;8.90;1.98;;;11.50;98.40;;;;;;5022242;28;25150;-81
2023/03/18 00:31:37;;;;;;;5.57;1.58;;;11.60;98.80;;;;;;5040039;28;25070;-81
2023/03/18 00:34:06;;;;;;;8.27;1.65;;;11.60;99.40;;;;;;5039861;28;25105;-81
2023/03/18 00:36:35;;;;;;;3.55;1.80;;;11.60;99.90;;;;;;5022032;28;25125;-81
2023/03/18 00:39:03;;;;;;;4.95;2.03;;;11.60;99.90;;;;;;5040027;28;25071;-81
2023/03/18 00:41:38;;;;;;;5.90;1.75;;;11.70;99.90;;;;;;5040184;28;25074;-81
2023/03/18 00:44:06;;;;;;;6.57;2.63;;;11.70;99.90;;;;;;5039921;28;25075;-81
2023/03/18 00:46:36;;;;;;;6.57;2.45;;;11.70;99.90;;;;;;5039645;28;25133;-81
2023/03/18 00:49:07;;;;;;;5.55;2.00;;;11.80;99.90;;;;;;5039653;28;25078;-81
2023/03/18 00:51:37;;;;;;;7.05;2.83;;;11.90;99.90;;;;;;5022002;28;25053;-81
2023/03/18 00:54:07;;;;;;;8.20;2.05;;;11.90;99.90;;;;;;5039416;28;25096;-81
2023/03/18 00:56:36;;;;;;;5.53;2.38;;;12.00;99.90;;;;;;5039380;28;25061;-81
2023/03/18 00:59:05;;;;;;;7.53;2.42;;;11.90;99.90;;;;;;5039930;28;25049;-81
2023/03/18 01:01:32;;;;;;;7.53;2.40;;;11.90;99.90;;;;;;5039580;28;25072;-81
2023/03/18 01:04:01;;;;;;;6.38;2.75;;;11.80;99.90;;;;;;5039587;28;25086;-81
2023/03/18 01:06:30;;;;;;;6.18;2.63;;;11.70;99.90;;;;;;5039301;28;25071;-81
2023/03/18 01:08:58;;;;;;;6.93;2.78;;;11.60;99.90;;;;;;5021588;28;25066;-81
2023/03/18 01:11:25;;;;;;;9.30;2.92;;;11.40;99.90;;;;;;5039141;28;25082;-81
2023/03/18 01:13:53;;;;;;;6.88;3.38;;;11.20;99.90;;;;;;5039394;28;25077;-81
2023/03/18 01:16:21;;;;;;;8.90;3.92;;;11.00;99.90;;;;;;5038861;28;25060;-81
2023/03/18 01:18:50;;;;;;;10.20;4.10;;;10.90;99.90;;;;;;5021414;28;25116;-81
2023/03/18 01:21:18;;;;;;;12.93;3.97;;;10.70;99.90;;;;;;5020201;28;25063;-81
2023/03/18 01:23:45;;;;;;;8.70;4.40;;;10.60;99.90;;;;;;5020852;28;25074;-81
2023/03/18 01:26:14;;;;;;;11.32;4.45;;;10.50;99.90;;;;;;5038806;28;25050;-81
2023/03/18 01:28:41;;;;;;;9.93;4.35;;;10.40;99.90;;;;;;5038903;28;25154;-81
2023/03/18 01:31:11;;;;;;;12.10;4.20;;;10.30;99.90;;;;;;5038992;28;25116;-80
2023/03/18 01:33:40;;;;;;;14.45;4.63;;;10.20;99.90;;;;;;5038798;28;25155;-80
2023/03/18 01:36:08;;;;;;;11.85;4.22;;;10.20;99.90;;;;;;5038664;28;25081;-81
2023/03/18 01:38:36;;;;;;;9.07;3.85;;;10.10;99.90;;;;;;5038407;28;25056;-80
2023/03/18 01:41:04;;;;;;;10.98;4.63;;;10.00;99.90;;;;;;5038858;28;25122;-81
2023/03/18 01:43:37;;;;;;;14.65;5.55;;;10.00;99.90;;;;;;5038554;28;25068;-81
2023/03/18 01:46:30;;;;;;;10.38;4.82;;;10.00;99.90;;;;;;5038533;28;25072;-81
2023/03/18 01:49:01;;;;;;;9.40;4.80;;;9.90;99.90;;;;;;5038434;28;25067;-81
2023/03/18 01:51:29;;;;;;;13.38;4.00;;;9.90;99.90;;;;;;5038618;28;25102;-81
2023/03/18 01:54:02;;;;;;;12.18;4.68;;;9.90;99.90;;;;;;5020814;28;25059;-81
2023/03/18 01:56:29;;;;;;;12.38;4.65;;;9.80;99.90;;;;;;5038317;28;25114;-82
2023/03/18 01:58:59;;;;;;;12.77;4.65;;;9.80;99.90;;;;;;5038595;28;25079;-82
2023/03/18 02:01:32;;;;;;;11.52;4.80;;;9.80;99.90;;;;;;5021674;28;25151;-81
2023/03/18 02:04:01;;;;;;;12.13;4.70;;;9.80;99.90;;;;;;5038492;28;25079;-82
2023/03/18 02:06:29;;;;;;;9.68;4.80;;;9.70;99.90;;;;;;5020288;28;25076;-82
2023/03/18 02:08:57;;;;;;;10.57;4.85;;;9.70;99.90;;;;;;5020390;28;25106;-82
2023/03/18 02:11:24;;;;;;;10.43;4.95;;;9.70;99.90;;;;;;5020147;28;25060;-82
2023/03/18 02:13:52;;;;;;;15.65;5.45;;;9.70;99.90;;;;;;5020305;28;25062;-82
2023/03/18 02:16:35;;;;;;;15.85;5.32;;;9.60;99.90;;;;;;5020174;28;25060;-82
2023/03/18 02:19:27;;;;;;;14.95;4.57;;;9.60;99.90;;;;;;5020612;28;25066;-83
2023/03/18 02:22:14;;;;;;;10.25;5.10;;;9.60;99.90;;;;;;5032515;28;25121;-82
2023/03/18 02:25:06;;;;;;;17.25;6.30;;;9.60;99.90;;;;;;5038119;28;25111;-82
2023/03/18 02:27:37;;;;;;;15.30;5.00;;;9.60;99.90;;;;;;5020106;28;25079;-82
2023/03/18 02:30:12;;;;;;;17.75;4.80;;;9.60;99.90;;;;;;5036641;28;25054;-82
2023/03/18 02:32:41;;;;;;;15.65;4.97;;;9.60;99.90;;;;;;5037913;28;25106;-82
2023/03/18 02:35:09;;;;;;;9.43;5.35;;;9.60;99.90;;;;;;5020260;28;25069;-82
2023/03/18 02:37:37;;;;;;;10.15;5.15;;;9.60;99.90;;;;;;5019893;28;25117;-82
2023/03/18 02:40:25;;;;;;;11.55;5.05;;;9.60;99.90;;;;;;5037771;28;25135;-82
2023/03/18 02:42:53;;;;;;;17.55;5.15;;;9.60;99.90;;;;;;5019926;28;25116;-82
2023/03/18 02:45:45;;;;;;;10.45;5.30;;;9.60;99.90;;;;;;5037323;28;25147;-82
2023/03/18 02:48:17;;;;;;;13.93;5.10;;;9.60;99.90;;;;;;5024042;28;25112;-82
2023/03/18 02:50:46;;;;;;;16.23;5.78;;;9.60;99.90;;;;;;5056293;28;25110;-82
2023/03/18 02:53:14;;;;;;;11.70;4.75;;;9.60;99.90;;;;;;5057223;28;25100;-82
2023/03/18 02:55:41;;;;;;;12.02;5.70;;;9.60;99.90;;;;;;5056060;28;25092;-82
2023/03/18 02:58:08;;;;;;;12.20;5.55;;;9.50;99.90;;;;;;5057368;28;25074;-82
2023/03/18 03:00:36;;;;;;;10.77;5.32;;;9.50;99.90;;;;;;5056752;28;25115;-82
2023/03/18 03:03:04;;;;;;;9.68;5.53;;;9.50;99.90;;;;;;5055884;28;25075;-82
2023/03/18 03:05:33;;;;;;;14.00;5.15;;;9.60;99.90;;;;;;5056489;28;25059;-82
2023/03/18 03:08:01;;;;;;;13.75;5.15;;;9.60;99.90;;;;;;5056926;28;25110;-82
2023/03/18 03:10:28;;;;;;;13.57;5.55;;;9.60;99.90;;;;;;5057690;28;25105;-82
2023/03/18 03:12:56;;;;;;;8.68;4.45;;;9.60;99.90;;;;;;5055162;28;25062;-82
2023/03/18 03:15:23;;;;;;;10.18;4.68;;;9.60;99.90;;;;;;5056229;28;25089;-82
2023/03/18 03:17:51;;;;;;;15.80;5.38;;;9.60;99.90;;;;;;5057104;28;25071;-82
2023/03/18 03:20:19;;;;;;;11.57;4.88;;;9.70;99.90;;;;;;5055226;28;25108;-82
2023/03/18 03:22:47;;;;;;;10.63;5.20;;;9.70;99.90;;;;;;5055611;28;25123;-82
2023/03/18 03:25:15;;;;;;;15.20;5.68;;;9.70;99.90;;;;;;5055596;28;25068;-82
2023/03/18 03:27:42;;;;;;;11.38;5.30;;;9.70;99.90;;;;;;5056333;28;25087;-82
2023/03/18 03:30:11;;;;;;;10.32;5.53;;;9.70;99.90;;;;;;5057024;28;25077;-82
2023/03/18 03:32:39;;;;;;;13.73;5.15;;;9.60;99.90;;;;;;5056191;28;25094;-82
2023/03/18 03:35:12;;;;;;;11.63;5.50;;;9.70;99.90;;;;;;5056454;28;25081;-82
2023/03/18 03:37:39;;;;;;;12.75;4.97;;;9.70;99.90;;;;;;5055325;28;25134;-81
2023/03/18 03:40:07;;;;;;;9.80;4.78;;;9.70;99.90;;;;;;5056428;28;25060;-82
2023/03/18 03:42:34;;;;;;;11.70;5.25;;;9.70;99.90;;;;;;5055285;28;25074;-82
2023/03/18 03:45:04;;;;;;;12.30;5.00;;;9.70;99.90;;;;;;5056664;28;25076;-81
2023/03/18 03:47:32;;;;;;;11.43;4.47;;;9.70;99.90;;;;;;5055537;28;25124;-82
2023/03/18 03:49:59;;;;;;;13.15;5.13;;;9.60;99.90;;;;;;5037925;28;25084;-82
2023/03/18 03:52:28;;;;;;;9.25;4.30;;;9.60;99.90;;;;;;5018629;28;25122;-82
2023/03/18 03:54:55;;;;;;;12.10;5.07;;;9.70;99.90;;;;;;5019014;28;25079;-82
2023/03/18 03:57:23;;;;;;;16.23;5.68;;;9.60;99.90;;;;;;5036414;28;25086;-82
2023/03/18 03:59:50;;;;;;;15.95;5.47;;;9.60;99.90;;;;;;5019014;28;25010;-82
2023/03/18 04:02:18;;;;;;;12.52;5.35;;;9.60;99.90;;;;;;5038404;28;25071;-82
2023/03/18 04:04:45;;;;;;;7.35;3.75;;;9.60;99.90;;;;;;5025208;28;25107;-82
2023/03/18 04:07:13;;;;;;;11.02;5.05;;;9.60;99.90;;;;;;5025365;28;25121;-82
2023/03/18 04:09:40;;;;;;;8.13;3.75;;;9.60;99.90;;;;;;5024997;28;25054;-82
2023/03/18 04:12:08;;;;;;;10.70;4.32;;;9.60;99.90;;;;;;5025206;28;25102;-82
2023/03/18 04:14:36;;;;;;;11.40;3.85;;;9.60;99.90;;;;;;5025146;28;25074;-81
2023/03/18 04:17:03;;;;;;;9.73;4.03;;;9.50;99.90;;;;;;5042830;28;25050;-82
2023/03/18 04:19:31;;;;;;;13.80;4.65;;;9.50;99.90;;;;;;5025381;28;25104;-81
2023/03/18 04:21:58;;;;;;;11.60;4.15;;;9.50;99.90;;;;;;5024896;28;25159;-82
2023/03/18 04:24:26;;;;;;;13.48;4.28;;;9.50;99.90;;;;;;5042656;28;25094;-81
2023/03/18 04:26:53;;;;;;;8.43;3.63;;;9.40;99.90;;;;;;5043099;28;25110;-82
2023/03/18 04:29:21;;;;;;;9.55;3.97;;;9.30;99.90;;;;;;5042921;28;25049;-82
2023/03/18 04:31:48;;;;;;;10.75;4.07;;;9.20;99.90;;;;;;5042404;28;25105;-82
2023/03/18 04:34:15;;;;;;;10.13;4.22;;;9.20;99.90;;;;;;5025003;28;25048;-81
2023/03/18 04:36:43;;;;;;;9.60;3.65;;;9.10;99.90;;;;;;5025256;28;25063;-82
2023/03/18 04:39:10;;;;;;;10.23;4.20;;;9.00;99.90;;;;;;5042836;28;25065;-81
2023/03/18 04:41:37;;;;;;;9.50;3.97;;;8.90;99.90;;;;;;5025218;28;25058;-81
2023/03/18 04:44:04;;;;;;;8.70;4.25;;;8.80;99.90;;;;;;5042450;28;25055;-82
2023/03/18 04:46:32;;;;;;;13.90;4.25;;;8.70;99.90;;;;;;5042648;28;25058;-82
2023/03/18 04:48:59;;;;;;;10.02;4.38;;;8.60;99.90;;;;;;5041096;28;25063;-82
2023/03/18 04:51:26;;;;;;;9.70;3.72;;;8.60;99.90;;;;;;5062444;28;25051;-82
2023/03/18 04:53:54;;;;;;;9.20;4.55;;;8.50;99.90;;;;;;5062436;28;25074;-82
2023/03/18 04:56:24;;;;;;;8.10;4.53;;;8.40;99.90;;;;;;5061505;28;25081;-82
2023/03/18 04:58:51;;;;;;;10.77;4.22;;;8.40;99.90;;;;;;5062950;28;25066;-82
2023/03/18 05:01:19;;;;;;;7.32;4.13;;;8.40;99.90;;;;;;5062359;28;25073;-82
2023/03/18 05:03:46;;;;;;;11.45;3.78;;;8.40;99.90;;;;;;5062612;28;25054;-82
2023/03/18 05:06:22;;;;;;;11.95;4.53;;;8.50;99.90;;;;;;5062482;28;25114;-82
2023/03/18 05:08:50;;;;;;;9.95;4.30;;;8.50;99.90;;;;;;5061244;28;25043;-82
2023/03/18 05:11:18;;;;;;;7.22;4.22;;;8.60;99.90;;;;;;5062723;28;25054;-82
2023/03/18 05:13:46;;;;;;;15.68;4.40;;;8.60;99.90;;;;;;5059923;28;25134;-82
2023/03/18 05:16:14;;;;;;;11.48;4.55;;;8.60;99.90;;;;;;5057960;28;25062;-82
2023/03/18 05:18:41;;;;;;;7.72;3.88;;;8.60;99.90;;;;;;5059327;28;25056;-82
2023/03/18 05:21:09;;;;;;;9.00;5.10;;;8.70;99.90;;;;;;5059217;28;25050;-82
2023/03/18 05:23:36;;;;;;;11.15;3.97;;;8.70;99.90;;;;;;5059224;28;25088;-82
2023/03/18 05:26:04;;;;;;;7.57;4.05;;;8.70;99.90;;;;;;5058100;28;25100;-82
2023/03/18 05:28:33;;;;;;;8.90;3.97;;;8.70;99.90;;;;;;5058845;28;25051;-82
2023/03/18 05:31:00;;;;;;;6.60;3.95;;;8.70;99.90;;;;;;5058950;28;25136;-82
2023/03/18 05:33:27;;;;;;;10.30;3.78;;;8.60;99.90;;;;;;5057656;28;25095;-82
2023/03/18 05:35:55;;;;;;;11.18;3.83;;;8.60;99.90;;;;;;5058620;28;25068;-82
2023/03/18 05:38:23;;;;;;;8.50;3.88;;;8.60;99.90;;;;;;5058975;28;25153;-82
2023/03/18 05:40:50;;;;;;;9.27;3.78;;;8.60;99.90;;;;;;5056506;28;25070;-82
2023/03/18 05:43:17;;;;;;;8.73;3.92;;;8.60;99.90;;;;;;5057284;28;25065;-82
2023/03/18 05:45:45;;;;;;;6.82;3.30;;;8.60;99.90;;;;;;5056921;28;25100;-82
2023/03/18 05:48:12;;;;;;;7.38;3.40;;;8.60;99.90;;;;;;5053253;28;25062;-82
2023/03/18 05:50:42;;;;;;;10.00;4.20;;;8.60;99.90;;;;;;5020682;28;25055;-82
2023/03/18 05:53:15;;;;;;;7.85;3.53;;;8.60;99.90;;;;;;5038688;28;25077;-84
2023/03/18 05:55:43;;;;;;;5.72;3.17;;;8.60;99.90;;;;;;5038410;28;25199;-82
2023/03/18 05:58:11;;;;;;;9.63;3.60;;;8.60;99.90;;;;;;5037852;28;25094;-78
2023/03/18 06:00:39;;;;;;;12.15;4.45;;;8.60;99.90;;;;;;5038464;28;25064;-81
2023/03/18 06:03:06;;;;;;;8.15;4.00;;;8.60;99.90;;;;;;5038148;28;25135;-81
2023/03/18 06:05:34;;;;;;;8.13;3.63;;;8.60;99.90;;;;;;5020551;28;25078;-80
2023/03/18 06:08:02;;;;;;;9.40;4.03;;;8.60;99.90;;;;;;5038378;28;25064;-82
2023/03/18 06:10:30;;;;;;;5.30;3.25;;;8.70;99.90;;;;;;5020766;28;25071;-80
2023/03/18 06:12:57;;;;;;;12.77;3.95;;;8.70;99.90;;;;;;5038289;28;25070;-80
2023/03/18 06:15:24;;;;;;;7.88;3.42;;;8.70;99.90;;;;;;5037808;28;25103;-82
2023/03/18 06:17:51;;;;;;;9.35;4.05;;;8.70;99.90;;;;;;5020611;28;24978;-81
2023/03/18 06:20:19;;;;;;;10.00;3.83;;;8.70;99.90;;;;;;5038222;28;25066;-81
2023/03/18 06:22:48;;;;;;;10.98;2.95;;;8.80;99.90;;;;;;5019894;28;25143;-86
2023/03/18 06:25:18;;;;;;;10.30;3.63;;;8.80;99.90;;;;;;5037549;28;25048;-76
2023/03/18 06:27:46;;;;;;;9.50;3.58;;;8.90;99.90;;;;;;5037745;28;25104;-74
2023/03/18 06:30:15;;;;;;;8.60;4.00;;;9.00;99.90;;;;;;5037832;28;25067;-78
2023/03/18 06:32:42;;;;;;;8.55;3.40;;;9.00;99.90;;;;;;5037667;28;25065;-79
2023/03/18 06:35:10;;;;;;;8.73;2.97;;;9.00;99.90;;;;;;5037972;28;25111;-74
2023/03/18 06:37:38;;;;;;;9.65;3.38;;;9.10;99.90;;;;;;5037767;28;25104;-73
2023/03/18 06:40:07;;;;;;;7.88;3.47;;;9.10;99.90;;;;;;5039031;28;25134;-74
2023/03/18 06:42:34;;;;;;;7.72;3.40;;;9.20;99.90;;;;;;5037796;28;25086;-81
2023/03/18 06:45:02;;;;;;;6.10;3.10;;;9.30;99.90;;;;;;5037725;28;25063;-81
2023/03/18 06:47:28;;;;;;;8.25;2.95;;;9.40;99.90;;;;;;5037518;28;25074;-81
2023/03/18 06:49:55;;;;;;;7.35;3.25;;;9.50;99.90;;;;;;5051239;28;25056;-86
2023/03/18 06:52:23;;;;;;;7.93;2.50;;;9.50;99.90;;;;;;5057790;28;24993;-85
2023/03/18 06:54:50;;;;;;;6.80;3.17;;;9.60;99.90;;;;;;5055829;28;25076;-88
2023/03/18 06:57:19;;;;;;;7.65;3.20;;;9.60;99.90;;;;;;5056269;28;25052;-87
2023/03/18 06:59:46;;;;;;;7.07;2.60;;;9.60;99.90;;;;;;5056605;28;25050;-86
2023/03/18 07:02:14;;;;;;;10.65;2.90;;;9.60;99.90;;;;;;5056430;28;25069;-89
2023/03/18 07:04:42;;;;;;;8.48;3.00;;;9.70;99.90;;;;;;5056513;28;25120;-85
2023/03/18 07:07:09;;;;;;;11.45;2.80;;;9.80;99.90;;;;;;5056004;28;25052;-80
2023/03/18 07:09:37;;;;;;;7.57;2.50;;;9.80;99.90;;;;;;5056968;28;25110;-83
2023/03/18 07:12:05;;;;;;;8.10;3.05;;;9.90;99.90;;;;;;5057381;28;25103;-74
2023/03/18 07:14:32;;;;;;;3.92;2.35;;;10.00;99.90;;;;;;5055819;28;25057;-80
2023/03/18 07:16:59;;;;;;;8.93;3.20;;;10.10;99.90;;;;;;5056777;28;25097;-75
2023/03/18 07:19:27;;;;;;;9.05;2.97;;;10.20;99.90;;;;;;5055931;28;25064;-77
2023/03/18 07:21:54;;;;;;;7.95;3.10;;;10.20;99.90;;;;;;5057171;28;25074;-76
2023/03/18 07:24:21;;;;;;;6.25;2.80;;;10.30;99.90;;;;;;5056723;28;25089;-78
2023/03/18 07:26:51;;;;;;;8.93;3.05;;;10.30;99.90;;;;;;5056685;28;25061;-74
2023/03/18 07:29:18;;;;;;;6.40;3.15;;;10.40;99.90;;;;;;5056655;28;25106;-76
2023/03/18 07:31:46;;;;;;;10.98;4.03;;;10.50;99.90;;;;;;5056598;28;25102;-77
2023/03/18 07:34:14;;;;;;;6.10;2.72;;;10.50;99.90;;;;;;5057110;28;25052;-76
2023/03/18 07:36:41;;;;;;;6.10;2.85;;;10.60;99.90;;;;;;5056092;28;25059;-81
2023/03/18 07:39:11;;;;;;;6.53;2.63;;;10.70;99.90;;;;;;5055276;28;25055;-77
2023/03/18 07:41:39;;;;;;;13.10;3.28;;;10.70;99.90;;;;;;5055436;28;25118;-76
2023/03/18 07:44:06;;;;;;;4.72;2.60;;;10.80;99.90;;;;;;5056393;28;25141;-78
2023/03/18 07:46:34;;;;;;;6.15;2.50;;;10.90;99.90;;;;;;5056806;28;25054;-82
2023/03/18 07:49:01;;;;;;;7.63;2.47;;;11.00;99.90;;;;;;5045003;28;25112;-87
2023/03/18 07:51:29;;;;;;;6.32;2.60;;;11.00;99.90;;;;;;5018502;28;25074;-85
2023/03/18 07:53:57;;;;;;;4.25;2.75;;;11.10;99.90;;;;;;5018849;28;25047;-89
2023/03/18 07:56:26;;;;;;;4.75;2.45;;;11.20;99.90;;;;;;5019331;28;25070;-86
2023/03/18 07:58:53;;;;;;;18.60;3.15;;;11.10;99.90;;;;;;5019184;28;25063;-93
2023/03/18 08:01:21;;;;;;;7.97;3.58;;;11.10;99.90;;;;;;5019245;28;25064;-88
2023/03/18 08:03:49;;;;;;;5.45;2.70;;;11.10;99.90;;;;;;5019995;28;25049;-88
2023/03/18 08:06:16;;;;;;;5.18;3.33;;;11.10;99.90;;;;;;5019596;28;25062;-89
2023/03/18 08:08:44;;;;;;;6.55;2.53;;;11.10;99.90;;;;;;5018813;28;25047;-84
2023/03/18 08:11:13;;;;;;;7.30;2.33;;;11.10;99.90;;;;;;5036117;28;25074;-80
2023/03/18 08:13:40;;;;;;;8.23;4.03;;;11.30;99.90;;;;;;5036174;28;25097;-76
2023/03/18 08:16:11;;;;;;;16.30;2.72;;;11.40;99.90;;;;;;5018587;28;25125;-86
2023/03/18 08:18:38;;;;;;;9.98;3.10;;;11.60;99.90;;;;;;5036022;28;25087;-79
2023/03/18 08:21:06;;;;;;;5.50;2.70;;;11.70;99.90;;;;;;5018985;28;25080;-80
2023/03/18 08:23:34;;;;;;;9.00;3.20;;;11.90;99.90;;;;;;5036228;28;25055;-86
2023/03/18 08:26:03;;;;;;;5.40;3.08;;;12.10;99.90;;;;;;5018449;28;25050;-82
2023/03/18 08:28:32;;;;;;;4.90;2.40;;;12.20;99.90;;;;;;5035869;28;25119;-80
2023/03/18 08:31:00;;;;;;;5.53;2.65;;;12.30;99.90;;;;;;5036061;28;25087;-82
2023/03/18 08:33:28;;;;;;;5.85;2.50;;;12.50;99.90;;;;;;5036085;28;25149;-82
2023/03/18 08:35:56;;;;;;;9.95;3.10;;;12.60;99.90;;;;;;5018394;28;25086;-82
2023/03/18 08:38:24;;;;;;;6.15;2.90;;;12.80;99.90;;;;;;5036064;28;25067;-83
2023/03/18 08:40:51;;;;;;;5.97;2.58;;;12.90;99.90;;;;;;5018215;28;25084;-80
2023/03/18 08:43:22;;;;;;;4.15;2.60;;;13.00;99.90;;;;;;5035725;28;25081;-80
2023/03/18 08:45:52;;;;;;;4.15;2.65;;;13.00;99.90;;;;;;5035751;28;25111;-77
2023/03/18 08:48:21;;;;;;;5.78;2.92;;;13.00;99.90;;;;;;5036702;28;25123;-81
2023/03/18 08:50:49;;;;;;;5.60;2.50;;;13.00;99.90;;;;;;5038969;28;25098;-85
2023/03/18 08:53:16;;;;;;;6.70;3.10;;;13.00;99.90;;;;;;5039848;28;25126;-88
2023/03/18 08:55:44;;;;;;;6.78;2.55;;;13.10;99.90;;;;;;5039256;28;25066;-89
2023/03/18 08:58:12;;;;;;;11.15;3.42;;;13.20;99.90;;;;;;5022056;28;25119;-84
2023/03/18 09:00:41;;;;;;;8.77;3.05;;;13.30;99.90;;;;;;5039621;28;25071;-77
2023/03/18 09:03:09;;;;;;;5.13;2.40;;;13.40;99.90;;;;;;5039267;28;25078;-80
2023/03/18 09:05:37;;;;;;;6.32;2.85;;;13.50;99.90;;;;;;5039642;28;25076;-82
2023/03/18 09:08:05;;;;;;;5.65;2.50;;;13.70;99.90;;;;;;5039368;28;25133;-79
2023/03/18 09:10:33;;;;;;;3.75;2.60;;;13.80;99.90;;;;;;5039148;28;25114;-76
2023/03/18 09:13:00;;;;;;;5.22;2.42;;;13.80;99.90;;;;;;5039689;28;25147;-83
2023/03/18 09:15:27;;;;;;;9.13;2.53;;;13.90;99.90;;;;;;5038738;28;25108;-82
2023/03/18 09:17:55;;;;;;;7.13;3.47;;;13.80;99.90;;;;;;5020556;28;25055;-82
2023/03/18 09:20:22;;;;;;;5.13;2.80;;;13.80;99.90;;;;;;5039245;28;25068;-79
2023/03/18 09:22:51;;;;;;;6.18;2.88;;;13.70;99.90;;;;;;5039189;28;25052;-82
2023/03/18 09:25:20;;;;;;;5.05;2.10;;;13.70;99.90;;;;;;5039165;28;25117;-83
2023/03/18 09:27:47;;;;;;;6.50;2.60;;;13.70;99.90;;;;;;5038782;28;25086;-82
2023/03/18 09:30:14;;;;;;;5.90;2.25;;;13.80;99.90;;;;;;5039095;28;25054;-83
2023/03/18 09:32:42;;;;;;;5.75;2.25;;;13.80;99.90;;;;;;5038789;28;25078;-87
2023/03/18 09:35:10;;;;;;;4.65;2.42;;;13.90;99.90;;;;;;5020957;28;25143;-77
2023/03/18 09:37:37;;;;;;;6.68;2.53;;;13.90;99.90;;;;;;5037465;28;25063;-80
2023/03/18 09:40:09;;;;;;;4.57;2.60;;;13.90;99.90;;;;;;5038505;28;25070;-87
2023/03/18 09:42:37;;;;;;;4.75;2.25;;;13.90;99.90;;;;;;5021668;28;25075;-76
2023/03/18 09:45:16;;;;;;;4.25;2.53;;;13.80;99.90;;;;;;5020857;28;25055;-78
2023/03/18 09:48:03;;;;;;;4.32;2.95;;;13.80;99.90;;;;;;5038905;28;25092;-77
2023/03/18 09:50:39;;;;;;;;;;;13.80;99.90;;;;;;5059025;28;25081;-86
2023/03/18 09:53:45;;;;;;;7.80;3.28;;;13.70;99.90;;;;;;5058557;28;24102;-76
2023/03/18 09:56:19;;;;;;;5.18;2.40;;;13.70;99.90;;;;;;5035330;28;25069;-80
2023/03/18 09:59:05;;;;;;;5.97;2.72;;;13.70;99.90;;;;;;5058160;28;25074;-79
2023/03/18 10:01:38;;;;;;;10.85;2.63;;;13.80;99.90;;;;;;5057465;28;25111;-78
2023/03/18 10:04:23;;;;;;;3.75;3.10;;;13.90;99.90;;;;;;5058018;28;25085;-78
2023/03/18 10:07:03;;;;;;;6.50;3.10;;;14.00;99.90;;;;;;5058391;28;25065;-79
2023/03/18 10:09:53;;;;;;;4.78;2.30;;;14.10;99.90;;;;;;5058006;28;25091;-77
2023/03/18 10:12:48;;;;;;;5.32;2.88;;;14.30;99.90;;;;;;5040201;28;25067;-77
2023/03/18 10:15:34;;;;;;;6.78;2.50;;;14.50;99.90;;;;;;5058319;28;25067;-84
2023/03/18 10:18:14;;;;;;;4.63;2.13;;;14.60;99.90;;;;;;5040172;28;25101;-83
2023/03/18 10:21:05;;;;;;;5.18;2.30;;;14.70;99.90;;;;;;5040186;28;25104;-85
2023/03/18 10:23:51;;;;;;;4.43;2.20;;;14.70;99.90;;;;;;5057669;28;25134;-84
2023/03/18 10:26:39;;;;;;;5.88;1.95;;;14.50;99.90;;;;;;5058153;28;25098;-82
2023/03/18 10:29:27;;;;;;;4.88;2.13;;;14.40;99.90;;;;;;5057551;28;25108;-81
2023/03/18 10:32:10;;;;;;;3.50;2.33;;;14.30;99.90;;;;;;5057944;28;25082;-84
2023/03/18 10:35:07;;;;;;;5.53;2.00;;;14.10;99.90;;;;;;5057499;28;25066;-83
2023/03/18 10:37:55;;;;;;;4.10;2.15;;;14.20;99.90;;;;;;5057598;28;25070;-81
2023/03/18 10:40:26;;;;;;;4.65;2.10;;;14.30;99.90;;;;;;5057256;28;25077;-81
2023/03/18 10:42:55;;;;;;;3.58;1.60;;;14.40;99.90;;;;;;5057644;28;25080;-82
2023/03/18 10:45:28;;;;;;;3.38;2.00;;;14.60;99.90;;;;;;5039815;28;25074;-82
2023/03/18 10:48:15;;;;;;;5.97;1.65;;;14.70;99.90;;;;;;5056585;28;25069;-83
2023/03/18 10:51:06;;;;;;;3.40;1.90;;;14.80;99.90;;;;;;5037327;28;25090;-78
2023/03/18 10:53:42;;;;;;;5.00;1.80;;;14.90;99.90;;;;;;5037458;28;25072;-81
2023/03/18 10:56:15;;;;;;;5.20;1.88;;;14.90;99.90;;;;;;5037143;28;25073;-79
2023/03/18 10:58:42;;;;;;;6.07;2.25;;;14.90;99.90;;;;;;5037376;28;25068;-86
2023/03/18 11:01:13;;;;;;;2.40;1.70;;;14.90;99.90;;;;;;5019789;28;25087;-78
2023/03/18 11:03:48;;;;;;;4.63;1.70;;;14.90;99.90;;;;;;5037226;28;25137;-80
2023/03/18 11:06:49;;;;;;;3.78;1.85;;;14.90;99.90;;;;;;5037130;28;25110;-78
2023/03/18 11:09:31;;;;;;;2.38;1.48;;;15.00;99.90;;;;;;5019375;28;25063;-79
2023/03/18 11:12:05;;;;;;;4.10;1.85;;;15.10;99.90;;;;;;5019033;28;25072;-81
2023/03/18 11:14:36;;;;;;;4.57;1.92;;;15.30;99.90;;;;;;5019255;28;25081;-78
2023/03/18 11:17:17;;;;;;;4.78;2.17;;;15.40;99.90;;;;;;5019220;28;25075;-74
2023/03/18 11:20:00;;;;;;;3.88;1.50;;;15.60;99.90;;;;;;5036986;28;25078;-75
2023/03/18 11:22:29;;;;;;;5.10;1.80;;;15.80;99.90;;;;;;5019157;28;25055;-78
2023/03/18 11:25:19;;;;;;;2.40;1.40;;;16.00;99.90;;;;;;5019084;28;25050;-78
2023/03/18 11:27:48;;;;;;;3.20;1.90;;;16.20;99.90;;;;;;5035454;28;25053;-77
2023/03/18 11:30:18;;;;;;;6.07;1.85;;;16.30;99.90;;;;;;5036838;28;25083;-77
2023/03/18 11:33:00;;;;;;;4.45;1.58;;;16.30;99.90;;;;;;5036499;28;25124;-78
2023/03/18 11:35:57;;;;;;;3.28;1.77;;;16.50;99.90;;;;;;5036877;28;25071;-77
2023/03/18 11:38:30;;;;;;;2.92;1.80;;;16.50;99.90;;;;;;5035973;28;25064;-76
2023/03/18 11:41:17;;;;;;;3.25;1.70;;;16.50;99.90;;;;;;5018869;28;25067;-76
2023/03/18 11:43:59;;;;;;;3.28;1.88;;;16.40;99.90;;;;;;5036377;28;25078;-75
2023/03/18 11:46:46;;;;;;;3.17;1.70;;;16.30;99.90;;;;;;5037013;28;25157;-74
2023/03/18 11:49:16;;;;;;;3.45;1.98;;;16.10;99.90;;;;;;5036173;28;25092;-77
2023/03/18 11:51:56;;;;;;;2.92;1.73;;;16.00;99.90;;;;;;5036586;28;25158;-75
2023/03/18 11:54:52;;;;;;;3.05;1.98;;;16.00;99.90;;;;;;5036758;28;25062;-76
2023/03/18 11:57:46;;;;;;;4.20;1.73;;;16.10;99.90;;;;;;5036320;28;25088;-76
2023/03/18 12:00:27;;;;;;;3.38;1.73;;;16.20;99.90;;;;;;5018652;28;25076;-76
2023/03/18 12:03:14;;;;;;;1.65;1.20;;;16.40;99.90;;;;;;5036350;28;25060;-75
2023/03/18 12:05:53;;;;;;;4.25;1.52;;;16.40;99.90;;;;;;5036530;28;25062;-76
2023/03/18 12:08:50;;;;;;;4.05;1.63;;;16.50;99.90;;;;;;5036576;28;25073;-76
2023/03/18 12:12:05;;;;;;;3.35;1.20;;;16.50;99.90;;;;;;5036391;28;25108;-76
2023/03/18 12:15:05;;;;;;;3.03;1.52;;;16.50;99.90;;;;;;5036008;28;25067;-74
2023/03/18 12:18:17;;;;;;;2.70;1.40;;;16.50;99.90;;;;;;5020212;28;25073;-76
2023/03/18 12:20:53;;;;;;;3.00;1.40;;;16.60;99.90;;;;;;4995064;28;25063;-76
2023/03/18 12:23:43;;;;;;;4.57;1.60;;;16.70;99.90;;;;;;5033908;28;25128;-77
2023/03/18 12:26:40;;;;;;;2.47;1.33;;;16.60;99.90;;;;;;5040124;28;25141;-74
2023/03/18 12:29:28;;;;;;;2.72;1.20;;;16.60;99.90;;;;;;5040448;28;25110;-76
2023/03/18 12:32:09;;;;;;;3.08;1.00;;;16.60;99.90;;;;;;5040066;28;24823;-74
2023/03/18 12:34:45;;;;;;;4.43;1.20;;;16.60;99.90;;;;;;5040013;28;25066;-73
2023/03/18 12:37:37;;;;;;;2.90;1.65;;;16.60;99.90;;;;;;5040064;28;25062;-73
2023/03/18 12:40:05;;;;;;;1.80;1.00;;;16.60;99.90;;;;;;5039955;28;25101;-74
2023/03/18 12:43:00;;;;;;;3.08;0.90;;;16.60;99.90;;;;;;5040175;28;25105;-74
2023/03/18 12:45:46;;;;;;;5.40;1.10;;;16.60;99.90;;;;;;5039682;28;25055;-73
2023/03/18 12:48:27;;;;;;;3.58;1.00;;;16.50;99.90;;;;;;5039521;28;25104;-72
2023/03/18 12:51:06;;;;;;;3.60;1.10;;;16.50;99.90;;;;;;5040366;28;25099;-72
2023/03/18 12:53:47;;;;;;;5.00;1.65;;;16.50;99.90;;;;;;5039410;28;25067;-75
2023/03/18 12:56:28;;;;;;;2.45;1.17;;;16.60;99.90;;;;;;5039547;28;25074;-75
2023/03/18 12:59:42;;;;;;;2.28;1.00;;;16.70;99.90;;;;;;5039413;28;25060;-75
2023/03/18 13:02:46;;;;;;;3.58;0.90;;;16.90;99.90;;;;;;5036657;28;25081;-74
2023/03/18 13:05:33;;;;;;;2.92;1.40;;;17.00;99.90;;;;;;5039676;28;25082;-73
2023/03/18 13:08:28;;;;;;;3.63;1.20;;;17.10;99.90;;;;;;5021635;28;25087;-75
2023/03/18 13:11:35;;;;;;;2.30;0.95;;;17.30;99.90;;;;;;5039966;28;25061;-74
2023/03/18 13:14:20;;;;;;;4.75;1.10;;;17.40;99.90;;;;;;5001764;28;25102;-74
2023/03/18 13:16:49;;;;;;;2.72;1.17;;;17.50;99.90;;;;;;5039042;28;25111;-73